Suburb Maryland Fac, Maryland
Current Conditions -  °F | °C
As of 12:55 AM on Friday 28 Nov 2014 (Local Time) from KGAI Reporting Station
Broken Clouds Broken Clouds  
Wind Chill: 23°   Ceiling: 4500
Heat Index: 32°   Visibility: 10mi
Dew Point: 21°   Wind: 12mph
Humidity: 64%   Direction: 300°WNW
Pressure: 30.2"   Gusts: NA
Location:  39.0876°N, 77.0578°W
Report Text: KGAI 280555Z 30010KT 10SM BKN045 00/M06 A3020 RMK AO1 10010 21010 52003
Loading
Personal Weather Stations






























Interactive Weather Map New forecast layout! Learn more

10-Day Weather Forecast

Advertisements
Track Severe Weather on mobile